KSBA/SBA METAR and TAF weather

Enter ICAO airport designator
Station Type Date Time Source
KSBA METAR 2021/01/22 06:53 UTC NOAA

KSBA 220653Z AUTO 00000KT 7SM CLR 08/06 A3001 RMK AO2 SLP163 T00780056


Station Type Date Time Source
KSBA Decoded METAR 2021/01/22 06:53 UTC NOAA

SANTA BARBARA MUNICIPAL, CA, United States (KSBA) 34-26N 119-51W 3M
Jan 22, 2021 - 01:53 AM EST / 2021.01.22 0653 UTC
Wind: Calm:0
Visibility: 7 mile(s):0
Sky conditions: clear
Temperature: 46.0 F (7.8 C)
Dew Point: 42.1 F (5.6 C)
Relative Humidity: 85%
Pressure (altimeter): 30.01 in. Hg (1016 hPa)
ob: KSBA 220653Z AUTO 00000KT 7SM CLR 08/06 A3001 RMK AO2 SLP163 T00780056
cycle: 7

Station Type Date Time Source
KSBA TAF 2021/01/22 06:58 UTC NOAA

TAF KSBA 220557Z 2206/2306 VRB03KT P6SM BKN250
FM221200 VRB03KT P6SM OVC012
FM221700 19007KT P6SM VCSH OVC015
FM222100 26010KT P6SM -SHRA OVC022
FM230300 29015KT P6SM VCSH BKN025

Example: see airport list